sensor_id;sensor_type;location;lat;lon;timestamp;pressure;altitude;pressure_sealevel;temperature;humidity
17855;BME280;9053;53.358;6.382;2023-02-17T00:02:07;101573.66;;;9.95;100.00
17855;BME280;9053;53.358;6.382;2023-02-17T00:04:40;101565.94;;;9.98;100.00
17855;BME280;9053;53.358;6.382;2023-02-17T00:07:10;101569.44;;;9.99;100.00
17855;BME280;9053;53.358;6.382;2023-02-17T00:09:40;101561.56;;;9.99;100.00
17855;BME280;9053;53.358;6.382;2023-02-17T00:12:10;101553.75;;;10.00;100.00
17855;BME280;9053;53.358;6.382;2023-02-17T00:14:40;101548.56;;;10.02;100.00
17855;BME280;9053;53.358;6.382;2023-02-17T00:17:10;101545.94;;;10.02;100.00
17855;BME280;9053;53.358;6.382;2023-02-17T00:19:43;101528.38;;;10.01;100.00
17855;BME280;9053;53.358;6.382;2023-02-17T00:22:13;101531.91;;;10.01;100.00
17855;BME280;9053;53.358;6.382;2023-02-17T00:24:43;101534.44;;;10.00;100.00
17855;BME280;9053;53.358;6.382;2023-02-17T00:27:13;101533.66;;;10.01;100.00
17855;BME280;9053;53.358;6.382;2023-02-17T00:29:43;101528.44;;;10.02;100.00
17855;BME280;9053;53.358;6.382;2023-02-17T00:32:13;101529.34;;;10.03;100.00
17855;BME280;9053;53.358;6.382;2023-02-17T00:34:45;101527.69;;;10.05;100.00
17855;BME280;9053;53.358;6.382;2023-02-17T00:37:15;101533.91;;;10.07;100.00
17855;BME280;9053;53.358;6.382;2023-02-17T00:39:47;101522.50;;;10.06;100.00
17855;BME280;9053;53.358;6.382;2023-02-17T00:42:19;101532.13;;;10.06;100.00
17855;BME280;9053;53.358;6.382;2023-02-17T00:44:49;101518.16;;;10.07;100.00
17855;BME280;9053;53.358;6.382;2023-02-17T00:47:19;101517.31;;;10.08;100.00
17855;BME280;9053;53.358;6.382;2023-02-17T00:49:52;101512.03;;;10.08;100.00
17855;BME280;9053;53.358;6.382;2023-02-17T00:52:22;101523.53;;;10.10;100.00
17855;BME280;9053;53.358;6.382;2023-02-17T00:54:54;101517.47;;;10.11;100.00
17855;BME280;9053;53.358;6.382;2023-02-17T00:57:24;101517.47;;;10.11;100.00
17855;BME280;9053;53.358;6.382;2023-02-17T00:59:58;101526.31;;;10.13;100.00
17855;BME280;9053;53.358;6.382;2023-02-17T01:02:28;101531.56;;;10.13;100.00
17855;BME280;9053;53.358;6.382;2023-02-17T01:05:00;101515.78;;;10.13;100.00
17855;BME280;9053;53.358;6.382;2023-02-17T01:07:30;101515.75;;;10.11;100.00
17855;BME280;9053;53.358;6.382;2023-02-17T01:10:08;101511.28;;;10.10;100.00
17855;BME280;9053;53.358;6.382;2023-02-17T01:12:38;101506.13;;;10.12;100.00
17855;BME280;9053;53.358;6.382;2023-02-17T01:15:08;101506.13;;;10.12;100.00
17855;BME280;9053;53.358;6.382;2023-02-17T01:17:39;101495.69;;;10.13;100.00
17855;BME280;9053;53.358;6.382;2023-02-17T01:20:11;101492.31;;;10.16;100.00
17855;BME280;9053;53.358;6.382;2023-02-17T01:22:41;101500.19;;;10.16;100.00
17855;BME280;9053;53.358;6.382;2023-02-17T01:25:12;101510.75;;;10.17;100.00
17855;BME280;9053;53.358;6.382;2023-02-17T01:27:46;101508.97;;;10.16;100.00
17855;BME280;9053;53.358;6.382;2023-02-17T01:30:16;101507.22;;;10.17;100.00
17855;BME280;9053;53.358;6.382;2023-02-17T01:32:49;101501.16;;;10.18;100.00
17855;BME280;9053;53.358;6.382;2023-02-17T01:35:22;101502.88;;;10.17;100.00
17855;BME280;9053;53.358;6.382;2023-02-17T01:37:52;101495.81;;;10.16;100.00
17855;BME280;9053;53.358;6.382;2023-02-17T01:40:22;101491.47;;;10.17;100.00
17855;BME280;9053;53.358;6.382;2023-02-17T01:42:52;101481.84;;;10.17;100.00
17855;BME280;9053;53.358;6.382;2023-02-17T01:45:37;101479.16;;;10.16;100.00
17855;BME280;9053;53.358;6.382;2023-02-17T01:48:16;101473.81;;;10.14;100.00
17855;BME280;9053;53.358;6.382;2023-02-17T01:50:53;101473.72;;;10.13;100.00
17855;BME280;9053;53.358;6.382;2023-02-17T01:53:29;101471.94;;;10.12;100.00
17855;BME280;9053;53.358;6.382;2023-02-17T01:56:05;101477.97;;;10.09;100.00
17855;BME280;9053;53.358;6.382;2023-02-17T01:58:38;101465.66;;;10.08;100.00
17855;BME280;9053;53.358;6.382;2023-02-17T02:01:12;101462.97;;;10.07;100.00
17855;BME280;9053;53.358;6.382;2023-02-17T02:03:43;101470.84;;;10.07;100.00
17855;BME280;9053;53.358;6.382;2023-02-17T02:06:18;101457.63;;;10.05;100.00
17855;BME280;9053;53.358;6.382;2023-02-17T02:08:55;101443.59;;;10.05;100.00
17855;BME280;9053;53.358;6.382;2023-02-17T02:11:30;101444.47;;;10.05;100.00
17855;BME280;9053;53.358;6.382;2023-02-17T02:14:00;101434.03;;;10.07;100.00
17855;BME280;9053;53.358;6.382;2023-02-17T02:16:40;101428.88;;;10.08;100.00
17855;BME280;9053;53.358;6.382;2023-02-17T02:19:31;101435.03;;;10.09;100.00
17855;BME280;9053;53.358;6.382;2023-02-17T02:22:36;101440.28;;;10.09;100.00
17855;BME280;9053;53.358;6.382;2023-02-17T02:25:23;101441.94;;;10.07;100.00
17855;BME280;9053;53.358;6.382;2023-02-17T02:28:09;101443.72;;;10.08;100.00
17855;BME280;9053;53.358;6.382;2023-02-17T02:31:06;101441.09;;;10.08;100.00
17855;BME280;9053;53.358;6.382;2023-02-17T02:33:49;101422.69;;;10.08;100.00
17855;BME280;9053;53.358;6.382;2023-02-17T02:36:25;101427.13;;;10.09;100.00
17855;BME280;9053;53.358;6.382;2023-02-17T02:39:02;101416.53;;;10.07;100.00
17855;BME280;9053;53.358;6.382;2023-02-17T02:41:50;101425.31;;;10.08;100.00
17855;BME280;9053;53.358;6.382;2023-02-17T02:44:25;101415.66;;;10.07;100.00
17855;BME280;9053;53.358;6.382;2023-02-17T02:46:59;101412.06;;;10.05;100.00
17855;BME280;9053;53.358;6.382;2023-02-17T02:49:35;101406.88;;;10.06;100.00
17855;BME280;9053;53.358;6.382;2023-02-17T02:52:11;101396.41;;;10.08;100.00
17855;BME280;9053;53.358;6.382;2023-02-17T02:54:51;101383.28;;;10.08;100.00
17855;BME280;9053;53.358;6.382;2023-02-17T02:57:45;101369.25;;;10.07;100.00
17855;BME280;9053;53.358;6.382;2023-02-17T03:00:22;101368.34;;;10.07;100.00
17855;BME280;9053;53.358;6.382;2023-02-17T03:03:00;101355.09;;;10.04;100.00
17855;BME280;9053;53.358;6.382;2023-02-17T03:05:43;101340.28;;;10.06;100.00
17855;BME280;9053;53.358;6.382;2023-02-17T03:08:21;101334.06;;;10.04;100.00
17855;BME280;9053;53.358;6.382;2023-02-17T03:10:55;101333.16;;;10.03;100.00
17855;BME280;9053;53.358;6.382;2023-02-17T03:13:25;101337.44;;;10.01;100.00
17855;BME280;9053;53.358;6.382;2023-02-17T03:15:55;101337.44;;;10.01;100.00
17855;BME280;9053;53.358;6.382;2023-02-17T03:18:26;101327.75;;;10.00;100.00
17855;BME280;9053;53.358;6.382;2023-02-17T03:21:04;101331.22;;;9.99;100.00
17855;BME280;9053;53.358;6.382;2023-02-17T03:23:35;101323.34;;;9.99;100.00
17855;BME280;9053;53.358;6.382;2023-02-17T03:26:05;101323.41;;;10.01;100.00
17855;BME280;9053;53.358;6.382;2023-02-17T03:28:41;101315.47;;;9.99;100.00
17855;BME280;9053;53.358;6.382;2023-02-17T03:31:11;101313.72;;;10.00;100.00
17855;BME280;9053;53.358;6.382;2023-02-17T03:33:44;101321.56;;;9.98;100.00
17855;BME280;9053;53.358;6.382;2023-02-17T03:36:17;101313.72;;;10.00;100.00
17855;BME280;9053;53.358;6.382;2023-02-17T03:38:48;101313.72;;;10.00;100.00
17855;BME280;9053;53.358;6.382;2023-02-17T03:41:21;101318.97;;;10.00;100.00
17855;BME280;9053;53.358;6.382;2023-02-17T03:43:51;101321.69;;;10.01;100.00
17855;BME280;9053;53.358;6.382;2023-02-17T03:46:27;101321.69;;;10.01;100.00
17855;BME280;9053;53.358;6.382;2023-02-17T03:48:57;101313.84;;;10.03;100.00
17855;BME280;9053;53.358;6.382;2023-02-17T03:51:30;101307.66;;;10.01;100.00
17855;BME280;9053;53.358;6.382;2023-02-17T03:54:00;101299.78;;;10.01;100.00
17855;BME280;9053;53.358;6.382;2023-02-17T03:56:30;101306.81;;;10.02;100.00
17855;BME280;9053;53.358;6.382;2023-02-17T03:59:00;101304.19;;;10.02;100.00
17855;BME280;9053;53.358;6.382;2023-02-17T04:01:33;101317.31;;;10.02;100.00
17855;BME280;9053;53.358;6.382;2023-02-17T04:04:03;101305.91;;;10.01;100.00
17855;BME280;9053;53.358;6.382;2023-02-17T04:06:36;101298.03;;;10.01;100.00
17855;BME280;9053;53.358;6.382;2023-02-17T04:09:08;101302.31;;;9.99;100.00
17855;BME280;9053;53.358;6.382;2023-02-17T04:11:38;101306.69;;;9.99;100.00
17855;BME280;9053;53.358;6.382;2023-02-17T04:14:08;101311.09;;;10.00;100.00
17855;BME280;9053;53.358;6.382;2023-02-17T04:16:38;101306.69;;;9.99;100.00
17855;BME280;9053;53.358;6.382;2023-02-17T04:19:08;101296.16;;;9.99;100.00
17855;BME280;9053;53.358;6.382;2023-02-17T04:21:40;101304.88;;;9.97;100.00
17855;BME280;9053;53.358;6.382;2023-02-17T04:24:13;101297.81;;;9.96;100.00
17855;BME280;9053;53.358;6.382;2023-02-17T04:26:43;101290.78;;;9.95;100.00
17855;BME280;9053;53.358;6.382;2023-02-17T04:29:15;101280.13;;;9.92;100.00
17855;BME280;9053;53.358;6.382;2023-02-17T04:31:45;101275.63;;;9.90;100.00
17855;BME280;9053;53.358;6.382;2023-02-17T04:34:15;101272.97;;;9.88;100.00
17855;BME280;9053;53.358;6.382;2023-02-17T04:36:48;101276.41;;;9.87;100.00
17855;BME280;9053;53.358;6.382;2023-02-17T04:39:18;101277.16;;;9.85;100.00
17855;BME280;9053;53.358;6.382;2023-02-17T04:41:48;101263.97;;;9.83;100.00
17855;BME280;9053;53.358;6.382;2023-02-17T04:44:17;101249.94;;;9.83;100.00
17855;BME280;9053;53.358;6.382;2023-02-17T04:46:47;101253.47;;;9.83;100.00
17855;BME280;9053;53.358;6.382;2023-02-17T04:49:17;101244.63;;;9.81;100.00
17855;BME280;9053;53.358;6.382;2023-02-17T04:51:50;101255.13;;;9.81;100.00
17855;BME280;9053;53.358;6.382;2023-02-17T04:54:20;101266.41;;;9.79;100.00
17855;BME280;9053;53.358;6.382;2023-02-17T04:56:53;101271.56;;;9.77;100.00
17855;BME280;9053;53.358;6.382;2023-02-17T04:59:30;101284.59;;;9.74;100.00
17855;BME280;9053;53.358;6.382;2023-02-17T05:02:04;101296.88;;;9.75;100.00
17855;BME280;9053;53.358;6.382;2023-02-17T05:04:34;101296.88;;;9.75;100.00
17855;BME280;9053;53.358;6.382;2023-02-17T05:07:10;101291.56;;;9.73;100.00
17855;BME280;9053;53.358;6.382;2023-02-17T05:09:40;101277.53;;;9.73;100.00
17855;BME280;9053;53.358;6.382;2023-02-17T05:12:10;101261.78;;;9.73;100.00
17855;BME280;9053;53.358;6.382;2023-02-17T05:14:40;101246.84;;;9.72;100.00
17855;BME280;9053;53.358;6.382;2023-02-17T05:17:10;101245.06;;;9.71;100.00
17855;BME280;9053;53.358;6.382;2023-02-17T05:19:40;101237.19;;;9.71;100.00
17855;BME280;9053;53.358;6.382;2023-02-17T05:22:13;101230.09;;;9.70;100.00
17855;BME280;9053;53.358;6.382;2023-02-17T05:24:43;101208.22;;;9.69;100.00
17855;BME280;9053;53.358;6.382;2023-02-17T05:27:13;101210.84;;;9.69;100.00
17855;BME280;9053;53.358;6.382;2023-02-17T05:29:43;101218.72;;;9.69;100.00
17855;BME280;9053;53.358;6.382;2023-02-17T05:32:13;101220.44;;;9.69;100.00
17855;BME280;9053;53.358;6.382;2023-02-17T05:34:43;101213.47;;;9.69;100.00
17855;BME280;9053;53.358;6.382;2023-02-17T05:37:18;101225.81;;;9.72;100.00
17855;BME280;9053;53.358;6.382;2023-02-17T05:39:48;101225.81;;;9.72;100.00
17855;BME280;9053;53.358;6.382;2023-02-17T05:42:18;101217.94;;;9.72;100.00
17855;BME280;9053;53.358;6.382;2023-02-17T05:44:54;101217.94;;;9.72;100.00
17855;BME280;9053;53.358;6.382;2023-02-17T05:47:25;101219.75;;;9.73;100.00
17855;BME280;9053;53.358;6.382;2023-02-17T05:49:55;101224.16;;;9.74;100.00
17855;BME280;9053;53.358;6.382;2023-02-17T05:52:27;101220.69;;;9.75;100.00
17855;BME280;9053;53.358;6.382;2023-02-17T05:54:57;101225.13;;;9.76;100.00
17855;BME280;9053;53.358;6.382;2023-02-17T05:57:29;101208.50;;;9.75;100.00
17855;BME280;9053;53.358;6.382;2023-02-17T05:59:59;101221.66;;;9.77;100.00
17855;BME280;9053;53.358;6.382;2023-02-17T06:02:29;101219.88;;;9.76;100.00
17855;BME280;9053;53.358;6.382;2023-02-17T06:05:01;101209.44;;;9.78;100.00
17855;BME280;9053;53.358;6.382;2023-02-17T06:07:36;101206.97;;;9.81;100.00
17855;BME280;9053;53.358;6.382;2023-02-17T06:10:10;101207.00;;;9.82;100.00
17855;BME280;9053;53.358;6.382;2023-02-17T06:12:40;101214.97;;;9.84;100.00
17855;BME280;9053;53.358;6.382;2023-02-17T06:15:10;101212.25;;;9.82;100.00
17855;BME280;9053;53.358;6.382;2023-02-17T06:17:42;101204.53;;;9.85;100.00
17855;BME280;9053;53.358;6.382;2023-02-17T06:20:13;101209.78;;;9.85;100.00
17855;BME280;9053;53.358;6.382;2023-02-17T06:22:46;101202.84;;;9.87;100.00
17855;BME280;9053;53.358;6.382;2023-02-17T06:25:17;101202.03;;;9.88;100.00
17855;BME280;9053;53.358;6.382;2023-02-17T06:27:48;101193.38;;;9.91;100.00
17855;BME280;9053;53.358;6.382;2023-02-17T06:30:18;101191.63;;;9.91;100.00
17855;BME280;9053;53.358;6.382;2023-02-17T06:32:50;101190.78;;;9.92;100.00
17855;BME280;9053;53.358;6.382;2023-02-17T06:35:20;101194.38;;;9.94;100.00
17855;BME280;9053;53.358;6.382;2023-02-17T06:37:52;101208.50;;;9.96;100.00
17855;BME280;9053;53.358;6.382;2023-02-17T06:40:22;101202.34;;;9.96;100.00
17855;BME280;9053;53.358;6.382;2023-02-17T06:42:55;101193.63;;;9.97;100.00
17855;BME280;9053;53.358;6.382;2023-02-17T06:45:26;101179.66;;;9.98;100.00
17855;BME280;9053;53.358;6.382;2023-02-17T06:47:56;101203.25;;;9.96;100.00
17855;BME280;9053;53.358;6.382;2023-02-17T06:50:25;101176.13;;;9.97;100.00
17855;BME280;9053;53.358;6.382;2023-02-17T06:52:59;101171.81;;;10.00;100.00
17855;BME280;9053;53.358;6.382;2023-02-17T06:55:29;101167.47;;;10.00;100.00
17855;BME280;9053;53.358;6.382;2023-02-17T06:58:03;101164.91;;;10.02;100.00
17855;BME280;9053;53.358;6.382;2023-02-17T07:00:44;101151.84;;;10.03;100.00
17855;BME280;9053;53.358;6.382;2023-02-17T07:03:24;101156.25;;;10.04;100.00
17855;BME280;9053;53.358;6.382;2023-02-17T07:05:56;101158.88;;;10.04;100.00
17855;BME280;9053;53.358;6.382;2023-02-17T07:08:28;101156.34;;;10.06;100.00
17855;BME280;9053;53.358;6.382;2023-02-17T07:11:04;101147.72;;;10.10;100.00
17855;BME280;9053;53.358;6.382;2023-02-17T07:13:43;101153.94;;;10.12;100.00
17855;BME280;9053;53.358;6.382;2023-02-17T07:16:14;101144.31;;;10.12;100.00
17855;BME280;9053;53.358;6.382;2023-02-17T07:18:48;101139.13;;;10.14;100.00
17855;BME280;9053;53.358;6.382;2023-02-17T07:21:18;101158.50;;;10.16;100.00
17855;BME280;9053;53.358;6.382;2023-02-17T07:23:51;101153.25;;;10.16;100.00
17855;BME280;9053;53.358;6.382;2023-02-17T07:26:21;101131.44;;;10.18;100.00
17855;BME280;9053;53.358;6.382;2023-02-17T07:28:51;101134.09;;;10.20;100.00
17855;BME280;9053;53.358;6.382;2023-02-17T07:31:24;101129.00;;;10.23;100.00
17855;BME280;9053;53.358;6.382;2023-02-17T07:33:54;101124.69;;;10.25;100.00
17855;BME280;9053;53.358;6.382;2023-02-17T07:36:24;101128.25;;;10.27;100.00
17855;BME280;9053;53.358;6.382;2023-02-17T07:38:56;101140.66;;;10.30;100.00
17855;BME280;9053;53.358;6.382;2023-02-17T07:41:26;101122.25;;;10.30;100.00
17855;BME280;9053;53.358;6.382;2023-02-17T07:43:59;101139.84;;;10.31;100.00
17855;BME280;9053;53.358;6.382;2023-02-17T07:46:32;101124.13;;;10.32;100.00
17855;BME280;9053;53.358;6.382;2023-02-17T07:49:02;101125.94;;;10.33;100.00
17855;BME280;9053;53.358;6.382;2023-02-17T07:51:33;101111.94;;;10.34;100.00
17855;BME280;9053;53.358;6.382;2023-02-17T07:54:06;101105.91;;;10.37;100.00
17855;BME280;9053;53.358;6.382;2023-02-17T07:56:36;101112.94;;;10.38;100.00
17855;BME280;9053;53.358;6.382;2023-02-17T07:59:07;101110.38;;;10.39;100.00
17855;BME280;9053;53.358;6.382;2023-02-17T08:01:38;101102.56;;;10.41;100.00
17855;BME280;9053;53.358;6.382;2023-02-17T08:04:08;101121.00;;;10.43;100.00
17855;BME280;9053;53.358;6.382;2023-02-17T08:06:38;101102.59;;;10.43;100.00
17855;BME280;9053;53.358;6.382;2023-02-17T08:09:14;101110.56;;;10.44;100.00
17855;BME280;9053;53.358;6.382;2023-02-17T08:11:56;101107.97;;;10.46;100.00
17855;BME280;9053;53.358;6.382;2023-02-17T08:14:41;101105.41;;;10.47;100.00
17855;BME280;9053;53.358;6.382;2023-02-17T08:17:11;101104.59;;;10.48;100.00
17855;BME280;9053;53.358;6.382;2023-02-17T08:19:41;101107.25;;;10.50;100.00
17855;BME280;9053;53.358;6.382;2023-02-17T08:22:15;101099.44;;;10.51;100.00
17855;BME280;9053;53.358;6.382;2023-02-17T08:24:50;101090.72;;;10.52;100.00
17855;BME280;9053;53.358;6.382;2023-02-17T08:27:23;101084.56;;;10.52;100.00
17855;BME280;9053;53.358;6.382;2023-02-17T08:29:54;101075.00;;;10.54;100.00
17855;BME280;9053;53.358;6.382;2023-02-17T08:32:24;101077.66;;;10.55;100.00
17855;BME280;9053;53.358;6.382;2023-02-17T08:34:55;101083.00;;;10.57;100.00
17855;BME280;9053;53.358;6.382;2023-02-17T08:37:26;101070.81;;;10.59;100.00
17855;BME280;9053;53.358;6.382;2023-02-17T08:40:00;101058.66;;;10.63;100.00
17855;BME280;9053;53.358;6.382;2023-02-17T08:42:32;101094.66;;;10.64;100.00
17855;BME280;9053;53.358;6.382;2023-02-17T08:45:02;101097.31;;;10.65;100.00
17855;BME280;9053;53.358;6.382;2023-02-17T08:47:35;101097.44;;;10.68;100.00
17855;BME280;9053;53.358;6.382;2023-02-17T08:50:07;101091.38;;;10.71;100.00
17855;BME280;9053;53.358;6.382;2023-02-17T08:52:38;101082.72;;;10.73;100.00
17855;BME280;9053;53.358;6.382;2023-02-17T08:55:10;101075.78;;;10.75;100.00
17855;BME280;9053;53.358;6.382;2023-02-17T08:57:43;101064.47;;;10.78;100.00
17855;BME280;9053;53.358;6.382;2023-02-17T09:00:14;101075.06;;;10.79;100.00
17855;BME280;9053;53.358;6.382;2023-02-17T09:02:44;101084.81;;;10.82;100.00
17855;BME280;9053;53.358;6.382;2023-02-17T09:05:14;101092.75;;;10.83;100.00
17855;BME280;9053;53.358;6.382;2023-02-17T09:07:44;101102.50;;;10.86;100.00
17855;BME280;9053;53.358;6.382;2023-02-17T09:10:20;101101.72;;;10.89;100.00
17855;BME280;9053;53.358;6.382;2023-02-17T09:12:50;101115.94;;;10.94;100.00
17855;BME280;9053;53.358;6.382;2023-02-17T09:15:23;101098.59;;;10.99;100.00
17855;BME280;9053;53.358;6.382;2023-02-17T09:17:53;101088.09;;;11.00;100.00
17855;BME280;9053;53.358;6.382;2023-02-17T09:20:23;101072.38;;;11.02;100.00
17855;BME280;9053;53.358;6.382;2023-02-17T09:22:53;101069.84;;;11.05;100.00
17855;BME280;9053;53.358;6.382;2023-02-17T09:25:26;101071.69;;;11.08;100.00
17855;BME280;9053;53.358;6.382;2023-02-17T09:27:56;101070.00;;;11.10;100.00
17855;BME280;9053;53.358;6.382;2023-02-17T09:30:26;101072.66;;;11.11;100.00
17855;BME280;9053;53.358;6.382;2023-02-17T09:33:00;101086.84;;;11.15;100.00
17855;BME280;9053;53.358;6.382;2023-02-17T09:35:31;101085.13;;;11.15;100.00
17855;BME280;9053;53.358;6.382;2023-02-17T09:38:01;101091.25;;;11.16;100.00
17855;BME280;9053;53.358;6.382;2023-02-17T09:40:42;101092.22;;;11.18;100.00
17855;BME280;9053;53.358;6.382;2023-02-17T09:43:20;101092.22;;;11.18;100.00
17855;BME280;9053;53.358;6.382;2023-02-17T09:46:04;101108.09;;;11.19;100.00
17855;BME280;9053;53.358;6.382;2023-02-17T09:48:39;101117.81;;;11.22;100.00
17855;BME280;9053;53.358;6.382;2023-02-17T09:51:18;101120.56;;;11.25;100.00
17855;BME280;9053;53.358;6.382;2023-02-17T09:53:54;101124.97;;;11.26;100.00
17855;BME280;9053;53.358;6.382;2023-02-17T09:56:33;101149.63;;;11.28;100.00
17855;BME280;9053;53.358;6.382;2023-02-17T09:59:10;101156.63;;;11.27;100.00
17855;BME280;9053;53.358;6.382;2023-02-17T10:01:41;101133.81;;;11.28;100.00
17855;BME280;9053;53.358;6.382;2023-02-17T10:04:21;101143.53;;;11.29;100.00
17855;BME280;9053;53.358;6.382;2023-02-17T10:06:59;101145.38;;;11.32;100.00
17855;BME280;9053;53.358;6.382;2023-02-17T10:09:32;101129.59;;;11.32;100.00
17855;BME280;9053;53.358;6.382;2023-02-17T10:12:08;101127.94;;;11.35;100.00
17855;BME280;9053;53.358;6.382;2023-02-17T10:14:47;101158.69;;;11.36;100.00
17855;BME280;9053;53.358;6.382;2023-02-17T10:17:22;101156.22;;;11.41;100.00
17855;BME280;9053;53.358;6.382;2023-02-17T10:19:57;101148.38;;;11.42;100.00
17855;BME280;9053;53.358;6.382;2023-02-17T10:22:30;101164.22;;;11.44;100.00
17855;BME280;9053;53.358;6.382;2023-02-17T10:25:16;101142.34;;;11.45;100.00
17855;BME280;9053;53.358;6.382;2023-02-17T10:27:54;101130.06;;;11.45;100.00
17855;BME280;9053;53.358;6.382;2023-02-17T10:30:36;101143.28;;;11.47;100.00
17855;BME280;9053;53.358;6.382;2023-02-17T10:33:13;101159.13;;;11.48;100.00
17855;BME280;9053;53.358;6.382;2023-02-17T10:35:51;101179.38;;;11.50;100.00
17855;BME280;9053;53.358;6.382;2023-02-17T10:38:34;101161.94;;;11.53;100.00
17855;BME280;9053;53.358;6.382;2023-02-17T10:41:07;101157.50;;;11.52;100.00
17855;BME280;9053;53.358;6.382;2023-02-17T10:43:43;101186.47;;;11.52;100.00
17855;BME280;9053;53.358;6.382;2023-02-17T10:46:16;101172.47;;;11.53;100.00
17855;BME280;9053;53.358;6.382;2023-02-17T10:48:49;101197.84;;;11.51;100.00
17855;BME280;9053;53.358;6.382;2023-02-17T10:51:22;101197.81;;;11.50;100.00
17855;BME280;9053;53.358;6.382;2023-02-17T10:53:57;101189.03;;;11.49;100.00
17855;BME280;9053;53.358;6.382;2023-02-17T10:56:34;101201.22;;;11.47;100.00
17855;BME280;9053;53.358;6.382;2023-02-17T10:59:13;101199.47;;;11.47;100.00
17855;BME280;9053;53.358;6.382;2023-02-17T11:01:46;101166.13;;;11.48;100.00
17855;BME280;9053;53.358;6.382;2023-02-17T11:04:17;101168.78;;;11.48;100.00
17855;BME280;9053;53.358;6.382;2023-02-17T11:06:48;101184.56;;;11.48;100.00
17855;BME280;9053;53.358;6.382;2023-02-17T11:09:20;101177.63;;;11.50;100.00
17855;BME280;9053;53.358;6.382;2023-02-17T11:11:58;101189.94;;;11.51;100.00
17855;BME280;9053;53.358;6.382;2023-02-17T11:14:32;101189.06;;;11.51;100.00
17855;BME280;9053;53.358;6.382;2023-02-17T11:17:14;101173.25;;;11.51;100.00
17855;BME280;9053;53.358;6.382;2023-02-17T11:19:54;101157.50;;;11.52;100.00
17855;BME280;9053;53.358;6.382;2023-02-17T11:22:30;101173.31;;;11.52;100.00
17855;BME280;9053;53.358;6.382;2023-02-17T11:25:04;101176.06;;;11.55;100.00
17855;BME280;9053;53.358;6.382;2023-02-17T11:27:35;101184.94;;;11.59;100.00
17855;BME280;9053;53.358;6.382;2023-02-17T11:30:14;101165.78;;;11.63;100.00
17855;BME280;9053;53.358;6.382;2023-02-17T11:32:45;101183.38;;;11.64;100.00
17855;BME280;9053;53.358;6.382;2023-02-17T11:35:24;101173.00;;;11.68;100.00
17855;BME280;9053;53.358;6.382;2023-02-17T11:38:00;101173.06;;;11.70;100.00
17855;BME280;9053;53.358;6.382;2023-02-17T11:40:31;101145.84;;;11.71;100.00
17855;BME280;9053;53.358;6.382;2023-02-17T11:43:05;101165.31;;;11.75;100.00
17855;BME280;9053;53.358;6.382;2023-02-17T11:45:41;101175.84;;;11.75;100.00
17855;BME280;9053;53.358;6.382;2023-02-17T11:48:38;101160.16;;;11.78;100.00
17855;BME280;9053;53.358;6.382;2023-02-17T11:51:16;101193.53;;;11.79;100.00
17855;BME280;9053;53.358;6.382;2023-02-17T11:53:58;101183.97;;;11.81;100.00
17855;BME280;9053;53.358;6.382;2023-02-17T11:56:33;101157.69;;;11.84;100.00
17855;BME280;9053;53.358;6.382;2023-02-17T11:59:17;101159.50;;;11.85;100.00
17855;BME280;9053;53.358;6.382;2023-02-17T12:02:10;101171.81;;;11.86;100.00
17855;BME280;9053;53.358;6.382;2023-02-17T12:04:53;101171.97;;;11.89;100.00
17855;BME280;9053;53.358;6.382;2023-02-17T12:07:37;101200.16;;;11.91;100.00
17855;BME280;9053;53.358;6.382;2023-02-17T12:10:13;101188.00;;;11.95;100.00
17855;BME280;9053;53.358;6.382;2023-02-17T12:12:57;101195.16;;;11.99;100.00
17855;BME280;9053;53.358;6.382;2023-02-17T12:15:41;101193.53;;;12.03;100.00
17855;BME280;9053;53.358;6.382;2023-02-17T12:18:31;101195.47;;;12.08;100.00
17855;BME280;9053;53.358;6.382;2023-02-17T12:21:08;101211.38;;;12.11;100.00
17855;BME280;9053;53.358;6.382;2023-02-17T12:26:38;101186.06;;;12.17;100.00
17855;BME280;9053;53.358;6.382;2023-02-17T12:29:23;101193.16;;;12.19;100.00
17855;BME280;9053;53.358;6.382;2023-02-17T12:32:09;101196.81;;;12.23;100.00
17855;BME280;9053;53.358;6.382;2023-02-17T12:34:50;101197.78;;;12.25;100.00
17855;BME280;9053;53.358;6.382;2023-02-17T12:37:27;101199.56;;;12.26;100.00
17855;BME280;9053;53.358;6.382;2023-02-17T12:40:02;101197.88;;;12.28;100.00
17855;BME280;9053;53.358;6.382;2023-02-17T12:42:36;101206.72;;;12.30;100.00
17855;BME280;9053;53.358;6.382;2023-02-17T12:45:16;101204.97;;;12.30;100.00
17855;BME280;9053;53.358;6.382;2023-02-17T12:47:51;101203.22;;;12.31;100.00
17855;BME280;9053;53.358;6.382;2023-02-17T12:50:30;101199.72;;;12.32;100.00
17855;BME280;9053;53.358;6.382;2023-02-17T12:53:04;101211.22;;;12.32;100.00
17855;BME280;9053;53.358;6.382;2023-02-17T12:55:40;101207.72;;;12.33;100.00
17855;BME280;9053;53.358;6.382;2023-02-17T12:58:17;101212.91;;;12.32;100.00
17855;BME280;9053;53.358;6.382;2023-02-17T13:00:53;101216.47;;;12.32;100.00
17855;BME280;9053;53.358;6.382;2023-02-17T13:03:23;101220.09;;;12.36;100.00
17855;BME280;9053;53.358;6.382;2023-02-17T13:05:59;101217.47;;;12.36;100.00
17855;BME280;9053;53.358;6.382;2023-02-17T13:08:36;101208.69;;;12.37;100.00
17855;BME280;9053;53.358;6.382;2023-02-17T13:11:12;101238.66;;;12.39;100.00
17855;BME280;9053;53.358;6.382;2023-02-17T13:13:42;101242.25;;;12.41;100.00
17855;BME280;9053;53.358;6.382;2023-02-17T13:16:13;101229.94;;;12.42;100.00
17855;BME280;9053;53.358;6.382;2023-02-17T13:18:45;101216.75;;;12.42;100.00
17855;BME280;9053;53.358;6.382;2023-02-17T13:21:26;101234.34;;;12.41;100.00
17855;BME280;9053;53.358;6.382;2023-02-17T13:24:02;101243.13;;;12.42;100.00
17855;BME280;9053;53.358;6.382;2023-02-17T13:26:34;101252.81;;;12.41;100.00
17855;BME280;9053;53.358;6.382;2023-02-17T13:29:20;101258.06;;;12.41;100.00
17855;BME280;9053;53.358;6.382;2023-02-17T13:31:52;101251.13;;;12.43;100.00